Data for 08/18/2017

Time Sea-Level Adjusted Pressure Absolute Pressure Temperature Relative Humidity Dew Point   
(mb) (inHg) (mb) (inHg) (C) (F) (%) (C) (F)
00:05 1022 30.18 851 25.13 16.2 61.2 39 2.2 36
00:10 1022 30.18 851 25.13 15.7 60.2 41 2.4 36.4
00:15 1022 30.18 851 25.13 15.3 59.6 42 2.4 36.3
00:20 1022 30.18 851 25.13 15 59 43 2.8 37
00:25 1022 30.18 851 25.13 14.8 58.6 44 2.6 36.6
00:30 1022 30.18 851 25.13 14.8 58.6 44 2.6 36.7
00:35 1022 30.18 851 25.13 14.7 58.5 44 2.7 36.9
00:40 1022 30.18 851 25.13 14.7 58.4 44 2.5 36.6
00:45 1022 30.18 851 25.13 14.6 58.3 44 2.6 36.8
00:50 1022 30.18 852 25.16 14.5 58.1 45 2.7 36.8
00:55 1022 30.18 852 25.16 14.3 57.8 45 2.7 36.9
01:00 1022 30.18 852 25.16 14.2 57.6 44 2.3 36.2
01:05 1022 30.18 852 25.16 14.6 58.2 41 1.7 35.1
01:10 1022 30.18 852 25.16 15.1 59.2 40 1.7 35
01:15 1022 30.18 852 25.16 15 59 42 2.4 36.3
01:20 1022 30.18 852 25.16 14.7 58.5 42 2.1 35.8
01:25 1023 30.21 852 25.16 14.6 58.3 43 2.3 36.2
01:30 1022 30.18 852 25.16 14.4 57.9 43 2.1 35.8
01:35 1022 30.18 852 25.16 14.3 57.7 43 2.1 35.7
01:40 1022 30.18 852 25.16 14.3 57.7 43 1.9 35.4
01:45 1022 30.18 852 25.16 14.4 57.9 41 1.5 34.8
01:50 1022 30.18 852 25.16 14.8 58.7 39 1.1 34
01:55 1022 30.18 852 25.16 15.2 59.3 38 1.1 33.9
02:00 1022 30.18 852 25.16 15.1 59.3 39 1.3 34.3
02:05 1022 30.18 852 25.16 15 59.1 38 1 33.8
02:10 1022 30.18 852 25.16 14.8 58.6 42 1.9 35.4
02:15 1022 30.18 852 25.16 14 57.2 44 2.1 35.9
02:20 1022 30.18 852 25.16 13.5 56.4 46 2.2 35.9
02:25 1022 30.18 852 25.16 13.3 55.9 45 1.5 34.8
02:30 1022 30.18 852 25.16 13.9 57 41 0.8 33.4
02:35 1022 30.18 851 25.13 14.4 57.8 41 1.4 34.6
02:40 1022 30.18 851 25.13 14.3 57.7 41 1.2 34.2
02:45 1022 30.18 851 25.13 14.2 57.6 41 1.2 34.1
02:50 1022 30.18 851 25.13 14.2 57.6 41 1.2 34.2
02:55 1022 30.18 851 25.13 14.4 57.9 39 0.8 33.4
03:00 1022 30.18 852 25.16 14.6 58.2 41 1.5 34.8
03:05 1022 30.18 852 25.16 13.9 57 42 1.3 34.4
03:10 1022 30.18 852 25.16 13.8 56.8 43 1.6 34.9
03:15 1022 30.18 852 25.16 13.4 56.1 45 1.9 35.5
03:20 1022 30.18 852 25.16 13.1 55.6 44 1.3 34.3
03:25 1022 30.18 851 25.13 13.2 55.8 44 1.3 34.3
03:30 1022 30.18 852 25.16 13.4 56.1 44 1.4 34.6
03:35 1022 30.18 852 25.16 13.4 56.1 44 1.3 34.4
03:40 1022 30.18 852 25.16 13.6 56.5 42 1.1 33.9
03:45 1022 30.18 852 25.16 13.8 56.9 41 1 33.8
03:50 1022 30.18 852 25.16 14.1 57.3 41 1 33.8
03:55 1022 30.18 852 25.16 14.1 57.4 42 1.3 34.4
04:00 1022 30.18 852 25.16 14.1 57.3 40 0.9 33.6
04:05 1022 30.18 851 25.13 14.2 57.5 41 1.3 34.3
04:10 1022 30.18 852 25.16 14.1 57.4 41 1.2 34.2
04:15 1022 30.18 852 25.16 14 57.2 43 1.6 34.8
04:20 1022 30.18 852 25.16 13.7 56.6 43 1.4 34.5
04:25 1022 30.18 852 25.16 13.6 56.5 44 1.8 35.3
04:30 1022 30.18 852 25.16 13.5 56.3 44 1.5 34.7
04:35 1022 30.18 852 25.16 13.6 56.4 44 1.5 34.8
04:40 1022 30.18 851 25.13 13.5 56.3 44 1.7 35
04:45 1022 30.18 851 25.13 13.4 56.1 45 1.9 35.4
04:50 1022 30.18 851 25.13 13.1 55.6 47 2.1 35.9
04:55 1022 30.18 851 25.13 13.1 55.5 46 1.8 35.2
05:00 1022 30.18 851 25.13 13.1 55.6 47 2 35.6
05:05 1022 30.18 851 25.13 12.8 55 48 2.2 35.9
05:10 1022 30.18 851 25.13 12.7 54.8 47 1.8 35.3
05:15 1022 30.18 851 25.13 12.9 55.1 47 1.9 35.5
05:20 1022 30.18 852 25.16 12.7 54.9 47 1.8 35.3
05:25 1022 30.18 852 25.16 12.7 54.9 46 1.6 34.8
05:30 1022 30.18 852 25.16 12.9 55.3 46 1.8 35.3
05:35 1022 30.18 852 25.16 12.8 55.1 48 2.1 35.8
05:40 1022 30.18 852 25.16 12.5 54.5 48 2 35.6
05:45 1022 30.18 852 25.16 12.7 54.9 46 1.4 34.6
05:50 1022 30.18 852 25.16 13.2 55.7 46 1.8 35.2
05:55 1022 30.18 852 25.16 13 55.4 48 2.3 36.1
06:00 1022 30.18 852 25.16 12.7 54.9 48 2.2 36
06:05 1022 30.18 852 25.16 12.7 54.8 49 2.2 36
06:10 1022 30.18 852 25.16 12.6 54.6 49 2.2 35.9
06:15 1023 30.21 852 25.16 12.6 54.7 48 2 35.6
06:20 1023 30.21 852 25.16 12.9 55.1 48 2.2 36
06:25 1023 30.21 852 25.16 12.7 54.8 48 2.1 35.7
06:30 1023 30.21 852 25.16 12.7 54.9 47 1.7 35.1
06:35 1023 30.21 852 25.16 13 55.5 45 1.4 34.6
06:40 1023 30.21 852 25.16 13.3 56 47 2.3 36.1
06:45 1023 30.21 852 25.16 12.8 55 49 2.4 36.3
06:50 1023 30.21 852 25.16 12.5 54.5 49 2.2 35.9
06:55 1023 30.21 852 25.16 12.4 54.3 51 2.5 36.5
07:00 1023 30.21 852 25.16 12 53.7 51 2.2 35.9
07:05 1023 30.21 852 25.16 12.3 54.1 50 2.3 36.1
07:10 1023 30.21 852 25.16 12.1 53.8 52 2.5 36.6
07:15 1023 30.21 852 25.16 12.2 53.9 49 1.7 35.1
07:20 1023 30.21 852 25.16 12.7 54.8 48 2 35.7
07:25 1023 30.21 852 25.16 12.7 54.9 48 2 35.7
07:30 1023 30.21 852 25.16 12.8 55 47 1.8 35.3
07:35 1023 30.21 852 25.16 12.9 55.3 48 2.2 35.9
07:40 1023 30.21 852 25.16 13 55.4 49 2.6 36.7
07:45 1023 30.21 852 25.16 12.8 55.1 51 2.9 37.2
07:50 1023 30.21 852 25.16 12.8 55.1 50 2.8 37
07:55 1023 30.21 852 25.16 12.9 55.3 50 2.7 36.9
08:00 1023 30.21 852 25.16 12.9 55.3 50 2.9 37.2
08:05 1023 30.21 852 25.16 13.1 55.6 51 3.2 37.7
08:10 1023 30.21 852 25.16 13.5 56.2 49 3.1 37.6
08:15 1023 30.21 852 25.16 13.6 56.4 50 3.5 38.2
08:20 1023 30.21 852 25.16 13.8 56.8 49 3.4 38.1
08:25 1023 30.21 852 25.16 14.1 57.4 47 3.1 37.6
08:30 1023 30.21 852 25.16 14.8 58.6 46 3.2 37.8
08:35 1023 30.21 852 25.16 15.6 60 43 3 37.4
08:40 1023 30.21 852 25.16 15.8 60.4 42 3.1 37.6
08:45 1023 30.21 852 25.16 16.2 61.2 43 3.8 38.9
08:50 1023 30.21 852 25.16 16.5 61.7 43 4 39.2
08:55 1023 30.21 852 25.16 16.9 62.5 41 3.7 38.6
09:00 1023 30.21 852 25.16 17.3 63.1 41 3.9 39.1
09:05 1023 30.21 852 25.16 17.1 62.8 41 3.7 38.7
09:10 1023 30.21 852 25.16 17.3 63.1 38 3.1 37.5
09:15 1023 30.21 852 25.16 17.8 64 38 3.3 38
09:20 1023 30.21 852 25.16 18 64.3 38 3.5 38.3
09:25 1023 30.21 852 25.16 18.7 65.6 34 2.6 36.7
09:30 1023 30.21 852 25.16 19.3 66.7 33 2.6 36.6
09:35 1023 30.21 852 25.16 19.7 67.4 33 3.3 38
09:40 1023 30.21 852 25.16 20 68.1 33 3.4 38.1
09:45 1023 30.21 852 25.16 20.2 68.3 31 2.9 37.1
09:50 1023 30.21 852 25.16 20.7 69.2 31 3 37.5
09:55 1023 30.21 852 25.16 21.1 70 30 3.1 37.6
10:00 1023 30.21 852 25.16 21.1 70.1 30 2.9 37.1
10:05 1023 30.21 852 25.16 21.5 70.8 29 2.8 37
10:10 1023 30.21 852 25.16 21.8 71.2 28 2.8 37.1
10:15 1023 30.21 852 25.16 21.7 71.1 28 2.6 36.7
10:20 1023 30.21 852 25.16 21.8 71.3 28 2.7 36.8
10:25 1023 30.21 852 25.16 22 71.7 27 2.2 36
10:30 1023 30.21 852 25.16 22.1 71.8 26 1.7 35.1
10:35 1023 30.21 852 25.16 22 71.5 28 2.6 36.7
10:40 1023 30.21 852 25.16 21.8 71.3 27 2.2 36
10:45 1023 30.21 852 25.16 22.6 72.6 26 2.5 36.4
10:50 1023 30.21 852 25.16 22.4 72.3 27 2.6 36.8
10:55 1022 30.18 852 25.16 22.1 71.7 26 1.9 35.5
11:00 1022 30.18 852 25.16 21.9 71.4 26 1.8 35.3
11:05 1022 30.18 852 25.16 21.5 70.8 27 1.8 35.3
11:10 1022 30.18 852 25.16 22.7 72.8 25 1.9 35.5
11:15 1022 30.18 852 25.16 23.6 74.5 25 2.7 36.8
11:20 1022 30.18 852 25.16 23.2 73.7 25 2.4 36.3
11:25 1022 30.18 852 25.16 23.4 74.1 24 2.1 35.7
11:30 1022 30.18 851 25.13 23.6 74.5 25 2.6 36.8
11:35 1022 30.18 851 25.13 23.9 75.1 24 2.3 36.2
11:40 1022 30.18 851 25.13 23.9 75 24 2.3 36.1
11:45 1022 30.18 851 25.13 24.2 75.6 23 2.2 36
11:50 1022 30.18 851 25.13 24.6 76.2 23 2 35.7
11:55 1022 30.18 851 25.13 24 75.3 22 1.3 34.4
12:00 1022 30.18 851 25.13 24.4 75.9 22 1.7 35
12:05 1022 30.18 851 25.13 24.1 75.3 21 0.9 33.6
12:10 1022 30.18 851 25.13 25 77 18 -0.4 31.3
12:15 1022 30.18 851 25.13 25 77 22 1.8 35.3
12:20 1022 30.18 851 25.13 24.6 76.2 22 1.5 34.7
12:25 1022 30.18 851 25.13 24.3 75.8 20 0.3 32.5
12:30 1022 30.18 851 25.13 24.9 76.8 20 0.7 33.3
12:35 1022 30.18 851 25.13 24.6 76.2 20 0.5 33
12:40 1022 30.18 851 25.13 24.8 76.7 20 0.5 33
12:45 1022 30.18 851 25.13 25.7 78.3 19 0.4 32.7
12:50 1021 30.15 851 25.13 26 78.8 19 0.9 33.7
12:55 1021 30.15 851 25.13 26.5 79.6 18 0.6 33
13:00 1021 30.15 851 25.13 26 78.8 18 0.5 32.8
13:05 1021 30.15 851 25.13 25.8 78.5 19 0.4 32.8
13:10 1021 30.15 851 25.13 26.4 79.4 18 0.7 33.2
13:15 1021 30.15 850 25.1 26.1 78.9 18 0.1 32.2
13:20 1021 30.15 850 25.1 26.4 79.4 19 0.9 33.6
13:25 1021 30.15 850 25.1 25.8 78.5 18 0.3 32.6
13:30 1021 30.15 850 25.1 25.3 77.6 19 0 32
13:35 1021 30.15 850 25.1 26.2 79.1 17 -0.3 31.4
13:40 1021 30.15 850 25.1 26.6 80 15 -1.7 28.9
13:45 1021 30.15 850 25.1 26.4 79.5 16 -1.2 29.8
13:50 1021 30.15 850 25.1 25.9 78.7 18 0.1 32.2
13:55 1021 30.15 850 25.1 26.4 79.5 17 -0.6 30.9
14:00 1021 30.15 850 25.1 27 80.5 17 0.1 32.1
14:05 1021 30.15 850 25.1 27.1 80.8 15 -1.6 29.1
14:10 1021 30.15 850 25.1 27.9 82.3 15 -1.1 30.1
14:15 1021 30.15 850 25.1 27.3 81.2 15 -1.1 30
14:20 1021 30.15 850 25.1 27.4 81.3 15 -1 30.1
14:25 1021 30.15 850 25.1 28 82.5 15 -1 30.2
14:30 1021 30.15 850 25.1 28.2 82.7 15 -1.1 30.1
14:35 1020 30.12 850 25.1 27.7 81.9 15 -1.2 29.9
14:40 1020 30.12 850 25.1 28 82.4 15 -1.1 30.1
14:45 1020 30.12 850 25.1 28.1 82.6 14 -1.4 29.5
14:50 1020 30.12 849 25.07 27.9 82.2 15 -0.5 31.1
14:55 1020 30.12 849 25.07 27.9 82.1 15 -0.9 30.3
15:00 1020 30.12 849 25.07 28.2 82.7 15 -1 30.2
15:05 1020 30.12 849 25.07 28.7 83.6 15 -0.5 31.2
15:10 1020 30.12 849 25.07 27.7 81.8 15 -1 30.2
15:15 1020 30.12 849 25.07 27.3 81.1 15 -1.2 29.8
15:20 1020 30.12 849 25.07 28 82.4 14 -1.5 29.3
15:25 1020 30.12 849 25.07 27.6 81.6 15 -1.2 29.8
15:30 1020 30.12 849 25.07 27.2 80.9 14 -1.9 28.6
15:35 1020 30.12 849 25.07 27.6 81.8 15 -1.5 29.4
15:40 1020 30.12 849 25.07 28.1 82.6 14 -1.2 29.9
15:45 1020 30.12 849 25.07 28.8 83.8 14 -1.5 29.4
15:50 1020 30.12 849 25.07 28.8 83.8 14 -1.2 29.8
15:55 1020 30.12 849 25.07 28.7 83.7 14 -1.1 29.9
16:00 1020 30.12 849 25.07 28.2 82.8 14 -1.9 28.7
16:05 1019 30.09 849 25.07 28.8 83.9 13 -1.5 29.3
16:10 1019 30.09 849 25.07 28.1 82.5 15 -1 30.2
16:15 1019 30.09 849 25.07 28.4 83.1 13 -1.9 28.7
16:20 1019 30.09 848 25.04 27.9 82.3 14 -1.5 29.4
16:25 1019 30.09 848 25.04 28.8 83.8 13 -2.6 27.4
16:30 1019 30.09 848 25.04 29.6 85.2 14 -0.8 30.6
16:35 1019 30.09 848 25.04 29.5 85.1 14 -0.9 30.4
16:40 1019 30.09 848 25.04 29.2 84.5 13 -1.9 28.6
16:45 1019 30.09 848 25.04 28.8 83.8 14 -1.3 29.6
16:50 1019 30.09 848 25.04 29.2 84.6 12 -2.6 27.4
16:55 1019 30.09 848 25.04 29.1 84.3 12 -2.5 27.5
17:00 1019 30.09 848 25.04 29.5 85.2 12 -2.1 28.3
17:05 1019 30.09 848 25.04 29.7 85.5 13 -1.2 29.9
17:10 1019 30.09 848 25.04 29.7 85.5 12 -2.3 27.9
17:15 1019 30.09 848 25.04 29.4 84.9 13 -1.9 28.6
17:20 1019 30.09 848 25.04 29.4 84.8 12 -2.2 28
17:25 1019 30.09 848 25.04 28.9 84.1 13 -2.3 27.9
17:30 1019 30.09 848 25.04 29.3 84.7 13 -2.1 28.3
17:35 1019 30.09 848 25.04 28.9 84 13 -2.5 27.6
17:40 1019 30.09 848 25.04 28.8 83.9 13 -2.1 28.2
17:45 1019 30.09 848 25.04 28.6 83.6 12 -3.4 25.9
17:50 1019 30.09 848 25.04 28.6 83.4 12 -3.7 25.3
17:55 1019 30.09 848 25.04 29.2 84.5 12 -2.7 27.2
18:00 1019 30.09 848 25.04 28.9 84.1 12 -2.7 27.2
18:05 1019 30.09 848 25.04 28.5 83.2 12 -3.1 26.4
18:10 1019 30.09 848 25.04 28.5 83.2 12 -3.3 26.1
18:15 1019 30.09 848 25.04 28.4 83 12 -3.5 25.8
18:20 1019 30.09 848 25.04 28.4 83.1 12 -3.8 25.2
18:25 1019 30.09 848 25.04 28.7 83.7 11 -4.1 24.7
18:30 1019 30.09 848 25.04 28.7 83.7 11 -3.9 24.9
18:35 1018 30.06 848 25.04 28.5 83.2 11 -4.1 24.6
18:40 1018 30.06 848 25.04 28.7 83.7 11 -4 24.9
18:45 1018 30.06 848 25.04 28.4 83.1 11 -4.8 23.3
18:50 1018 30.06 848 25.04 28.1 82.6 11 -4.3 24.2
18:55 1018 30.06 848 25.04 28 82.4 11 -4.4 24
19:00 1018 30.06 848 25.04 27.9 82.3 11 -4.9 23.2
19:05 1018 30.06 847 25.01 27.8 82 11 -4.8 23.3
19:10 1018 30.06 847 25.01 27.7 81.8 11 -4.9 23.2
19:15 1018 30.06 847 25.01 27.6 81.7 12 -3.9 25
19:20 1018 30.06 847 25.01 27.5 81.5 12 -4.6 23.7
19:25 1018 30.06 847 25.01 27.3 81.2 12 -3.8 25.1
19:30 1018 30.06 847 25.01 27.2 80.9 11 -5.1 22.8
19:35 1018 30.06 847 25.01 27.1 80.7 16 -0.5 31.1
19:40 1018 30.06 847 25.01 27 80.6 13 -3 26.6
19:45 1018 30.06 847 25.01 27 80.6 14 -2.3 27.8
19:50 1018 30.06 847 25.01 26.9 80.4 17 0.2 32.3
19:55 1018 30.06 847 25.01 26.7 80.1 19 1.5 34.7
20:00 1018 30.06 847 25.01 26.5 79.7 19 1.3 34.4
20:05 1018 30.06 847 25.01 26.3 79.3 23 3.5 38.3
20:10 1018 30.06 847 25.01 25.5 77.9 25 4.5 40.2
20:15 1018 30.06 847 25.01 24.5 76.1 28 5.3 41.5
20:20 1018 30.06 847 25.01 23.7 74.7 29 4.7 40.4
20:25 1018 30.06 847 25.01 23.3 73.9 30 5.2 41.3
20:30 1018 30.06 847 25.01 22.8 73.1 28 3.4 38
20:35 1018 30.06 847 25.01 22.3 72.1 27 2.8 37.1
20:40 1018 30.06 847 25.01 21.8 71.3 27 2.5 36.4
20:45 1018 30.06 847 25.01 21.5 70.7 28 2.5 36.6
20:50 1018 30.06 847 25.01 21.2 70.2 28 2.3 36.2
20:55 1018 30.06 847 25.01 21.1 69.9 27 1.7 35.1
21:00 1018 30.06 847 25.01 21 69.8 27 1.7 35.1
21:05 1018 30.06 847 25.01 20.8 69.4 27 1.5 34.6
21:10 1018 30.06 847 25.01 20.6 69 28 1.6 34.9
21:15 1018 30.06 847 25.01 20.3 68.5 29 1.9 35.4
21:20 1018 30.06 847 25.01 19.9 67.7 31 2.2 35.9
21:25 1018 30.06 847 25.01 19.4 67 30 1.6 34.9
21:30 1018 30.06 847 25.01 19.3 66.8 29 0.9 33.7
21:35 1018 30.06 847 25.01 19.3 66.7 29 0.8 33.5
21:40 1018 30.06 847 25.01 19.2 66.5 28 0.5 33
21:45 1018 30.06 847 25.01 19.1 66.4 28 0.3 32.5
21:50 1018 30.06 847 25.01 19.2 66.5 27 -0 32
21:55 1018 30.06 848 25.04 19.3 66.7 26 -0.4 31.3
22:00 1018 30.06 848 25.04 19.4 66.8 26 -0.4 31.4
22:05 1018 30.06 848 25.04 19.4 67 26 -0.5 31.1
22:10 1018 30.06 848 25.04 19.4 66.8 26 -0.2 31.6
22:15 1018 30.06 848 25.04 19.2 66.5 26 -0.6 31
22:20 1018 30.06 848 25.04 19.1 66.3 28 0.4 32.7
22:25 1019 30.09 848 25.04 18.3 64.9 30 0.3 32.5
22:30 1019 30.09 848 25.04 17.9 64.3 27 -1.1 30
22:35 1019 30.09 848 25.04 18.1 64.6 25 -2 28.4
22:40 1019 30.09 848 25.04 19 66.2 26 -0.9 30.4
22:45 1019 30.09 848 25.04 18.8 65.9 26 -0.7 30.7
22:50 1019 30.09 848 25.04 18.4 65.1 29 0 32.1
22:55 1019 30.09 848 25.04 17.7 63.8 29 -0.4 31.2
23:00 1019 30.09 848 25.04 17.5 63.5 28 -1.2 29.9
23:05 1019 30.09 848 25.04 17.9 64.1 27 -1.3 29.6
23:10 1019 30.09 848 25.04 17.9 64.3 28 -0.9 30.4
23:15 1019 30.09 848 25.04 18.2 64.8 26 -1.7 28.9
23:20 1019 30.09 848 25.04 18.5 65.3 25 -1.6 29
23:25 1019 30.09 848 25.04 18.6 65.5 25 -1.9 28.7
23:30 1019 30.09 848 25.04 18.6 65.5 25 -1.7 28.9
23:35 1019 30.09 848 25.04 18.5 65.2 26 -1.3 29.6
23:40 1019 30.09 848 25.04 18.5 65.2 25 -1.9 28.6
23:45 1019 30.09 848 25.04 18.6 65.4 26 -1.3 29.6
23:50 1019 30.09 848 25.04 18.4 65.2 24 -2.2 28
23:55 1019 30.09 848 25.04 19 66.1 23 -2.2 28
24:00 1019 30.09 848 25.04 18.6 65.6 25 -1.5 29.2